createdAt,value
2018-09-28T00:00:48.347Z,160.00
2018-09-28T00:02:41.336Z,144.00
2018-09-28T00:03:41.334Z,148.00
2018-09-28T00:05:34.406Z,172.00
2018-09-28T00:06:34.324Z,192.00
2018-09-28T00:08:27.267Z,204.00
2018-09-28T00:09:27.306Z,200.00
2018-09-28T00:11:20.377Z,204.00
2018-09-28T00:12:20.291Z,188.00
2018-09-28T00:14:13.251Z,184.00
2018-09-28T00:15:13.286Z,180.00
2018-09-28T00:17:06.289Z,164.00
2018-09-28T00:18:06.277Z,148.00
2018-09-28T00:19:59.239Z,132.00
2018-09-28T00:20:59.239Z,124.00
2018-09-28T00:22:52.517Z,140.00
2018-09-28T00:23:52.259Z,140.00
2018-09-28T00:25:45.483Z,148.00
2018-09-28T00:26:45.411Z,152.00
2018-09-28T00:28:38.519Z,168.00
2018-09-28T00:29:38.434Z,188.00
2018-09-28T00:31:31.400Z,216.00
2018-09-28T00:32:31.437Z,244.00
2018-09-28T00:34:24.513Z,288.00
2018-09-28T00:35:24.413Z,300.00
2018-09-28T00:37:17.371Z,300.00
2018-09-28T00:38:17.391Z,304.00
2018-09-28T00:40:10.498Z,304.00
2018-09-28T00:41:10.392Z,300.00
2018-09-28T00:43:03.354Z,292.00
2018-09-28T00:44:03.403Z,284.00
2018-09-28T00:45:56.462Z,280.00
2018-09-28T00:46:56.376Z,284.00
2018-09-28T00:48:49.359Z,292.00
2018-09-28T00:49:49.372Z,296.00
2018-09-28T00:51:42.481Z,292.00
2018-09-28T00:52:42.334Z,292.00
2018-09-28T00:54:35.329Z,292.00
2018-09-28T00:55:35.329Z,288.00
2018-09-28T00:57:28.586Z,300.00
2018-09-28T00:58:28.345Z,312.00
2018-09-28T01:00:21.291Z,328.00
2018-09-28T01:01:21.331Z,344.00
2018-09-28T01:03:14.457Z,352.00
2018-09-28T01:04:14.323Z,336.00
2018-09-28T01:06:07.293Z,344.00
2018-09-28T01:07:07.311Z,336.00
2018-09-28T01:09:00.565Z,332.00
2018-09-28T01:10:00.303Z,336.00
2018-09-28T01:11:53.281Z,320.00
2018-09-28T01:12:53.269Z,312.00
2018-09-28T01:14:46.366Z,296.00
2018-09-28T01:15:46.292Z,288.00
2018-09-28T01:17:39.264Z,292.00
2018-09-28T01:18:39.285Z,292.00
2018-09-28T01:20:32.584Z,248.00
2018-09-28T01:21:32.330Z,236.00
2018-09-28T01:23:25.335Z,224.00
2018-09-28T01:24:25.330Z,216.00
2018-09-28T01:26:18.423Z,216.00
2018-09-28T01:27:18.294Z,220.00
2018-09-28T01:29:11.290Z,224.00
2018-09-28T01:30:11.282Z,220.00
2018-09-28T01:32:04.419Z,216.00
2018-09-28T01:33:04.373Z,212.00
2018-09-28T01:34:57.275Z,208.00
2018-09-28T01:35:57.317Z,208.00
2018-09-28T01:37:59.866Z,220.00
2018-09-28T01:38:50.298Z,236.00
2018-09-28T01:40:43.259Z,244.00
2018-09-28T01:41:43.246Z,256.00
2018-09-28T01:43:36.369Z,264.00
2018-09-28T01:44:36.260Z,272.00
2018-09-28T01:46:29.236Z,300.00
2018-09-28T01:47:29.269Z,320.00
2018-09-28T01:49:22.255Z,328.00
2018-09-28T01:50:22.238Z,340.00
2018-09-28T01:52:15.349Z,380.00
2018-09-28T01:53:15.229Z,380.00
2018-09-28T01:55:08.326Z,328.00
2018-09-28T01:56:08.220Z,304.00
2018-09-28T01:58:01.195Z,300.00
2018-09-28T01:59:01.188Z,284.00
2018-09-28T02:00:54.945Z,272.00
2018-09-28T02:01:54.218Z,268.00
2018-09-28T02:03:47.179Z,248.00
2018-09-28T02:04:47.209Z,248.00
2018-09-28T02:06:40.413Z,248.00
2018-09-28T02:07:40.180Z,248.00
2018-09-28T02:09:33.172Z,228.00
2018-09-28T02:10:33.254Z,216.00
2018-09-28T02:12:26.541Z,204.00
2018-09-28T02:13:26.173Z,196.00
2018-09-28T02:15:19.129Z,172.00
2018-09-28T02:16:19.175Z,168.00
2018-09-28T02:18:12.262Z,172.00
2018-09-28T02:19:12.158Z,176.00
2018-09-28T02:21:05.172Z,200.00
2018-09-28T02:22:05.148Z,224.00
2018-09-28T02:23:58.173Z,260.00
2018-09-28T02:24:58.128Z,284.00
2018-09-28T02:26:51.112Z,336.00
2018-09-28T02:27:51.115Z,336.00
2018-09-28T02:29:44.190Z,368.00
2018-09-28T02:30:44.114Z,380.00
2018-09-28T02:32:37.085Z,392.00
2018-09-28T02:33:37.119Z,384.00
2018-09-28T02:35:30.175Z,388.00
2018-09-28T02:36:30.066Z,384.00
2018-09-28T02:38:23.080Z,384.00
2018-09-28T02:39:23.079Z,372.00
2018-09-28T02:41:16.311Z,372.00
2018-09-28T02:42:16.067Z,384.00
2018-09-28T02:44:09.088Z,400.00
2018-09-28T02:45:09.060Z,400.00
2018-09-28T02:47:02.276Z,404.00
2018-09-28T02:48:02.021Z,400.00
2018-09-28T02:49:55.010Z,412.00
2018-09-28T02:50:55.027Z,420.00
2018-09-28T02:52:48.127Z,456.00
2018-09-28T02:53:48.030Z,456.00
2018-09-28T02:55:41.017Z,504.00
2018-09-28T02:56:41.000Z,524.00
2018-09-28T02:58:33.959Z,556.00
2018-09-28T02:59:33.888Z,540.00
2018-09-28T03:01:26.872Z,508.00
2018-09-28T03:02:26.854Z,492.00
2018-09-28T03:04:20.072Z,488.00
2018-09-28T03:05:19.779Z,512.00
2018-09-28T03:07:12.725Z,504.00
2018-09-28T03:08:12.722Z,516.00
2018-09-28T03:10:05.869Z,520.00
2018-09-28T03:11:05.655Z,528.00
2018-09-28T03:12:58.575Z,484.00
2018-09-28T03:13:58.571Z,444.00
2018-09-28T03:15:51.816Z,380.00
2018-09-28T03:16:51.475Z,368.00
2018-09-28T03:18:44.408Z,344.00
2018-09-28T03:19:44.399Z,336.00
2018-09-28T03:21:37.461Z,320.00
2018-09-28T03:22:37.351Z,304.00
2018-09-28T03:24:30.255Z,264.00
2018-09-28T03:25:30.335Z,252.00
2018-09-28T03:27:23.538Z,236.00
2018-09-28T03:28:23.237Z,224.00
2018-09-28T03:30:16.202Z,216.00
2018-09-28T03:31:16.255Z,212.00
2018-09-28T03:33:09.368Z,208.00
2018-09-28T03:34:09.228Z,208.00
2018-09-28T03:36:02.209Z,204.00
2018-09-28T03:37:02.245Z,204.00
2018-09-28T03:38:55.574Z,208.00
2018-09-28T03:39:55.205Z,216.00
2018-09-28T03:41:48.176Z,216.00
2018-09-28T03:42:48.233Z,220.00
2018-09-28T03:44:41.284Z,252.00
2018-09-28T03:45:41.207Z,276.00
2018-09-28T03:47:34.184Z,300.00
2018-09-28T03:48:34.197Z,288.00
2018-09-28T03:50:27.284Z,308.00
2018-09-28T03:51:27.200Z,328.00
2018-09-28T03:53:20.131Z,372.00
2018-09-28T03:54:20.183Z,388.00
2018-09-28T03:56:13.262Z,404.00
2018-09-28T03:57:13.176Z,404.00
2018-09-28T03:59:07.182Z,396.00
2018-09-28T04:00:06.151Z,384.00
2018-09-28T04:01:59.238Z,372.00
2018-09-28T04:02:59.144Z,364.00
2018-09-28T04:04:52.093Z,352.00
2018-09-28T04:05:52.133Z,356.00
2018-09-28T04:07:59.875Z,368.00
2018-09-28T04:08:45.093Z,380.00
2018-09-28T04:10:38.072Z,432.00
2018-09-28T04:11:38.078Z,480.00
2018-09-28T04:13:31.134Z,556.00
2018-09-28T04:14:31.040Z,592.00
2018-09-28T04:15:31.098Z,612.00
2018-09-28T04:16:31.092Z,632.00
2018-09-28T04:17:31.098Z,660.00
2018-09-28T04:18:31.142Z,684.00
2018-09-28T04:19:31.161Z,708.00
2018-09-28T04:20:31.171Z,724.00
2018-09-28T04:21:31.185Z,756.00
2018-09-28T04:22:31.189Z,792.00
2018-09-28T04:23:31.230Z,800.00
2018-09-28T04:24:31.264Z,776.00
2018-09-28T04:25:31.268Z,740.00
2018-09-28T04:26:31.261Z,712.00
2018-09-28T04:27:31.295Z,688.00
2018-09-28T04:28:31.298Z,664.00
2018-09-28T04:29:31.340Z,648.00
2018-09-28T04:30:31.364Z,640.00
2018-09-28T04:31:31.398Z,644.00
2018-09-28T04:32:31.417Z,648.00
2018-09-28T04:33:31.420Z,668.00
2018-09-28T04:34:31.441Z,668.00
2018-09-28T04:35:31.474Z,688.00
2018-09-28T04:36:31.457Z,712.00
2018-09-28T04:37:31.515Z,720.00
2018-09-28T04:38:31.501Z,744.00
2018-09-28T04:39:31.508Z,772.00
2018-09-28T04:40:31.545Z,808.00
2018-09-28T04:41:31.583Z,832.00
2018-09-28T04:42:31.589Z,848.00
2018-09-28T04:43:31.580Z,860.00
2018-09-28T04:44:31.600Z,872.00
2018-09-28T04:45:31.693Z,888.00
2018-09-28T04:46:31.683Z,908.00
2018-09-28T04:47:31.686Z,892.00
2018-09-28T04:48:31.676Z,900.00
2018-09-28T04:49:31.720Z,900.00
2018-09-28T04:50:31.761Z,888.00
2018-09-28T04:51:31.734Z,868.00
2018-09-28T04:52:31.756Z,852.00
2018-09-28T04:53:31.828Z,852.00
2018-09-28T04:54:31.793Z,844.00
2018-09-28T04:55:31.806Z,844.00
2018-09-28T04:56:31.830Z,836.00
2018-09-28T04:57:31.870Z,820.00
2018-09-28T04:58:31.893Z,816.00
2018-09-28T04:59:31.931Z,808.00
2018-09-28T05:00:31.927Z,812.00
2018-09-28T05:01:31.950Z,804.00
2018-09-28T05:02:31.971Z,796.00
2018-09-28T05:03:31.975Z,792.00
2018-09-28T05:04:32.007Z,784.00
2018-09-28T05:05:32.024Z,772.00
2018-09-28T05:06:32.063Z,748.00
2018-09-28T05:07:32.057Z,740.00
2018-09-28T05:08:32.077Z,736.00
2018-09-28T05:09:32.094Z,772.00
2018-09-28T05:10:32.103Z,776.00
2018-09-28T05:11:32.153Z,792.00
2018-09-28T05:12:32.170Z,820.00
2018-09-28T05:13:32.171Z,828.00
2018-09-28T05:14:32.212Z,824.00
2018-09-28T05:15:32.222Z,832.00
2018-09-28T05:16:32.248Z,820.00
2018-09-28T05:17:32.251Z,800.00
2018-09-28T05:18:32.269Z,792.00
2018-09-28T05:19:32.349Z,788.00
2018-09-28T05:20:32.298Z,788.00
2018-09-28T05:21:32.344Z,776.00
2018-09-28T05:22:32.347Z,764.00
2018-09-28T05:23:32.364Z,764.00
2018-09-28T05:24:32.396Z,772.00
2018-09-28T05:25:32.407Z,816.00
2018-09-28T05:26:32.421Z,784.00
2018-09-28T05:27:32.472Z,776.00
2018-09-28T05:28:32.458Z,788.00
2018-09-28T05:29:32.499Z,784.00
2018-09-28T05:30:32.516Z,784.00
2018-09-28T05:31:32.596Z,800.00
2018-09-28T05:32:32.733Z,800.00
2018-09-28T05:33:32.557Z,808.00
2018-09-28T05:34:32.583Z,832.00
2018-09-28T05:35:32.600Z,832.00
2018-09-28T05:36:32.638Z,820.00
2018-09-28T05:37:32.639Z,792.00
2018-09-28T05:38:32.682Z,764.00
2018-09-28T05:39:32.727Z,824.00
2018-09-28T05:40:32.685Z,832.00
2018-09-28T05:41:32.719Z,812.00
2018-09-28T05:42:32.735Z,824.00
2018-09-28T05:43:32.764Z,808.00
2018-09-28T05:44:32.761Z,796.00
2018-09-28T05:45:32.798Z,796.00
2018-09-28T05:46:32.830Z,812.00
2018-09-28T05:47:32.833Z,816.00
2018-09-28T05:48:32.863Z,824.00
2018-09-28T05:49:32.857Z,832.00
2018-09-28T05:50:32.890Z,840.00
2018-09-28T05:51:32.963Z,852.00
2018-09-28T05:52:32.937Z,856.00
2018-09-28T05:53:32.983Z,868.00
2018-09-28T05:54:33.043Z,872.00
2018-09-28T05:55:32.985Z,880.00
2018-09-28T05:56:33.021Z,872.00
2018-09-28T05:57:33.026Z,856.00
2018-09-28T05:58:33.118Z,856.00
2018-09-28T05:59:33.074Z,852.00
2018-09-28T06:00:33.082Z,860.00
2018-09-28T06:01:33.105Z,864.00
2018-09-28T06:02:33.137Z,880.00
2018-09-28T06:03:33.157Z,892.00
2018-09-28T06:04:33.177Z,892.00
2018-09-28T06:05:33.263Z,900.00
2018-09-28T06:06:33.188Z,904.00
2018-09-28T06:07:33.232Z,908.00
2018-09-28T06:08:33.253Z,896.00
2018-09-28T06:09:33.278Z,904.00
2018-09-28T06:10:33.266Z,912.00
2018-09-28T06:11:33.314Z,876.00
2018-09-28T06:12:33.316Z,848.00
2018-09-28T06:13:33.335Z,824.00
2018-09-28T06:14:33.371Z,760.00
2018-09-28T06:15:33.361Z,820.00
2018-09-28T06:16:33.381Z,832.00
2018-09-28T06:17:33.417Z,812.00
2018-09-28T06:18:33.468Z,828.00
2018-09-28T06:19:33.447Z,804.00
2018-09-28T06:20:33.524Z,768.00
2018-09-28T06:21:33.478Z,736.00
2018-09-28T06:22:33.521Z,704.00
2018-09-28T06:23:33.524Z,720.00
2018-09-28T06:24:33.572Z,692.00
2018-09-28T06:25:33.585Z,716.00
2018-09-28T06:26:33.602Z,680.00
2018-09-28T06:27:33.607Z,664.00
2018-09-28T06:28:33.617Z,676.00
2018-09-28T06:29:33.661Z,660.00
2018-09-28T06:30:33.661Z,656.00
2018-09-28T06:31:33.697Z,644.00
2018-09-28T06:32:33.721Z,636.00
2018-09-28T06:33:33.718Z,616.00
2018-09-28T06:34:33.744Z,620.00
2018-09-28T06:35:33.819Z,632.00
2018-09-28T06:36:33.792Z,620.00
2018-09-28T06:37:33.799Z,608.00
2018-09-28T06:38:33.831Z,600.00
2018-09-28T06:39:33.847Z,596.00
2018-09-28T06:40:33.847Z,588.00
2018-09-28T06:41:33.879Z,592.00
2018-09-28T06:42:34.834Z,588.00
2018-09-28T06:43:33.929Z,588.00
2018-09-28T06:44:33.948Z,580.00
2018-09-28T06:45:34.012Z,580.00
2018-09-28T06:46:33.978Z,592.00
2018-09-28T06:47:33.991Z,572.00
2018-09-28T06:48:34.044Z,544.00
2018-09-28T06:49:34.019Z,552.00
2018-09-28T06:50:34.047Z,556.00
2018-09-28T06:51:34.066Z,556.00
2018-09-28T06:52:34.085Z,564.00
2018-09-28T06:53:34.199Z,568.00
2018-09-28T06:54:34.133Z,556.00
2018-09-28T06:55:34.160Z,560.00
2018-09-28T06:56:34.172Z,576.00
2018-09-28T06:57:34.188Z,576.00
2018-09-28T06:58:34.217Z,596.00
2018-09-28T06:59:34.227Z,612.00
2018-09-28T07:00:34.264Z,616.00
2018-09-28T07:01:34.260Z,604.00
2018-09-28T07:02:34.282Z,568.00
2018-09-28T07:03:34.320Z,536.00
2018-09-28T07:04:34.312Z,460.00
2018-09-28T07:05:34.359Z,428.00
2018-09-28T07:06:34.361Z,464.00
2018-09-28T07:07:34.379Z,480.00
2018-09-28T07:08:34.415Z,544.00
2018-09-28T07:09:34.511Z,548.00
2018-09-28T07:10:34.445Z,516.00
2018-09-28T07:11:34.462Z,524.00
2018-09-28T07:12:34.470Z,520.00
2018-09-28T07:13:34.515Z,520.00
2018-09-28T07:14:34.528Z,512.00
2018-09-28T07:15:34.533Z,468.00
2018-09-28T07:16:34.566Z,448.00
2018-09-28T07:17:35.355Z,472.00
2018-09-28T07:18:34.607Z,508.00
2018-09-28T07:19:34.600Z,516.00
2018-09-28T07:20:34.631Z,512.00
2018-09-28T07:21:34.668Z,460.00
2018-09-28T07:22:34.672Z,456.00
2018-09-28T07:23:34.690Z,492.00
2018-09-28T07:24:34.819Z,504.00
2018-09-28T07:25:34.743Z,464.00
2018-09-28T07:26:34.760Z,484.00
2018-09-28T07:27:34.752Z,512.00
2018-09-28T07:28:34.804Z,516.00
2018-09-28T07:29:34.805Z,528.00
2018-09-28T07:30:34.843Z,544.00
2018-09-28T07:31:34.862Z,560.00
2018-09-28T07:32:34.865Z,548.00
2018-09-28T07:33:34.879Z,532.00
2018-09-28T07:34:34.904Z,540.00
2018-09-28T07:35:35.859Z,544.00
2018-09-28T07:36:35.091Z,548.00
2018-09-28T07:37:34.956Z,556.00
2018-09-28T07:38:34.978Z,560.00
2018-09-28T07:39:34.986Z,556.00
2018-09-28T07:40:35.000Z,564.00
2018-09-28T07:41:35.030Z,576.00
2018-09-28T07:42:35.054Z,584.00
2018-09-28T07:43:35.082Z,588.00
2018-09-28T07:44:35.099Z,588.00
2018-09-28T07:45:35.124Z,584.00
2018-09-28T07:46:35.126Z,584.00
2018-09-28T07:47:35.164Z,604.00
2018-09-28T07:48:35.154Z,628.00
2018-09-28T07:49:35.186Z,636.00
2018-09-28T07:50:35.214Z,628.00
2018-09-28T07:51:35.236Z,608.00
2018-09-28T07:52:35.238Z,584.00
2018-09-28T07:53:35.279Z,584.00
2018-09-28T07:54:35.289Z,604.00
2018-09-28T07:55:35.296Z,616.00
2018-09-28T07:56:35.318Z,604.00
2018-09-28T07:57:35.356Z,604.00
2018-09-28T07:58:35.371Z,616.00
2018-09-28T07:59:35.374Z,632.00
2018-09-28T08:00:35.415Z,640.00
2018-09-28T08:01:35.455Z,644.00
2018-09-28T08:02:35.449Z,648.00
2018-09-28T08:03:35.471Z,652.00
2018-09-28T08:04:35.486Z,656.00
2018-09-28T08:05:35.487Z,648.00
2018-09-28T08:06:35.529Z,656.00
2018-09-28T08:07:35.530Z,660.00
2018-09-28T08:08:35.561Z,672.00
2018-09-28T08:09:35.567Z,688.00
2018-09-28T08:10:35.603Z,696.00
2018-09-28T08:11:35.617Z,700.00
2018-09-28T08:12:35.632Z,700.00
2018-09-28T08:13:35.665Z,696.00
2018-09-28T08:14:35.662Z,684.00
2018-09-28T08:15:35.699Z,668.00
2018-09-28T08:16:35.718Z,644.00
2018-09-28T08:17:35.723Z,632.00
2018-09-28T08:18:35.755Z,620.00
2018-09-28T08:19:35.765Z,608.00
2018-09-28T08:20:35.787Z,596.00
2018-09-28T08:21:35.787Z,568.00
2018-09-28T08:22:35.832Z,552.00
2018-09-28T08:23:35.832Z,536.00
2018-09-28T08:24:35.886Z,520.00
2018-09-28T08:25:35.878Z,508.00
2018-09-28T08:26:35.882Z,488.00
2018-09-28T08:27:35.923Z,480.00
2018-09-28T08:28:35.925Z,488.00
2018-09-28T08:29:35.957Z,484.00
2018-09-28T08:30:36.063Z,500.00
2018-09-28T08:31:35.984Z,504.00
2018-09-28T08:32:36.004Z,500.00
2018-09-28T08:33:36.026Z,504.00
2018-09-28T08:34:36.042Z,500.00
2018-09-28T08:35:36.049Z,500.00
2018-09-28T08:36:36.109Z,496.00
2018-09-28T08:37:36.121Z,492.00
2018-09-28T08:38:36.119Z,476.00
2018-09-28T08:39:36.140Z,460.00
2018-09-28T08:40:36.172Z,440.00
2018-09-28T08:41:36.177Z,448.00
2018-09-28T08:42:36.193Z,444.00
2018-09-28T08:43:36.250Z,440.00
2018-09-28T08:44:36.251Z,436.00
2018-09-28T08:45:36.243Z,436.00
2018-09-28T08:46:36.290Z,452.00
2018-09-28T08:47:36.306Z,440.00
2018-09-28T08:48:36.324Z,432.00
2018-09-28T08:49:36.332Z,420.00
2018-09-28T08:50:36.362Z,408.00
2018-09-28T08:51:36.368Z,392.00
2018-09-28T08:52:36.386Z,384.00
2018-09-28T08:53:36.423Z,368.00
2018-09-28T08:54:36.414Z,368.00
2018-09-28T08:55:36.443Z,360.00
2018-09-28T08:56:36.487Z,356.00
2018-09-28T08:57:36.475Z,356.00
2018-09-28T08:58:36.490Z,352.00
2018-09-28T08:59:36.520Z,364.00
2018-09-28T09:00:36.537Z,360.00
2018-09-28T09:01:36.572Z,344.00
2018-09-28T09:02:36.596Z,332.00
2018-09-28T09:03:36.594Z,320.00
2018-09-28T09:04:36.629Z,304.00
2018-09-28T09:05:36.628Z,292.00
2018-09-28T09:06:36.655Z,280.00
2018-09-28T09:07:36.685Z,272.00
2018-09-28T09:08:36.712Z,264.00
2018-09-28T09:09:36.714Z,256.00
2018-09-28T09:10:36.729Z,252.00
2018-09-28T09:11:36.772Z,252.00
2018-09-28T09:12:36.778Z,248.00
2018-09-28T09:13:36.789Z,248.00
2018-09-28T09:14:36.806Z,240.00
2018-09-28T09:15:36.818Z,236.00
2018-09-28T09:16:36.848Z,240.00
2018-09-28T09:17:36.863Z,236.00
2018-09-28T09:18:36.884Z,240.00
2018-09-28T09:19:36.900Z,236.00
2018-09-28T09:20:37.047Z,236.00
2018-09-28T09:21:36.940Z,236.00
2018-09-28T09:22:36.973Z,228.00
2018-09-28T09:23:36.983Z,224.00
2018-09-28T09:24:36.993Z,220.00
2018-09-28T09:25:37.074Z,208.00
2018-09-28T09:26:37.052Z,196.00
2018-09-28T09:27:37.048Z,184.00
2018-09-28T09:28:37.070Z,176.00
2018-09-28T09:29:37.081Z,172.00
2018-09-28T09:30:37.103Z,168.00
2018-09-28T09:31:37.143Z,172.00
2018-09-28T09:32:37.149Z,172.00
2018-09-28T09:33:37.168Z,176.00
2018-09-28T09:34:37.212Z,184.00
2018-09-28T09:35:37.203Z,188.00
2018-09-28T09:36:37.283Z,196.00
2018-09-28T09:37:37.259Z,204.00
2018-09-28T09:38:37.264Z,204.00
2018-09-28T09:39:37.282Z,208.00
2018-09-28T09:40:37.292Z,212.00
2018-09-28T09:41:37.325Z,216.00
2018-09-28T09:42:37.390Z,220.00
2018-09-28T09:43:37.371Z,220.00
2018-09-28T09:44:37.395Z,220.00
2018-09-28T09:45:37.395Z,224.00
2018-09-28T09:46:37.416Z,224.00
2018-09-28T09:47:37.434Z,228.00
2018-09-28T09:48:37.566Z,232.00
2018-09-28T09:49:37.474Z,236.00
2018-09-28T09:50:37.506Z,244.00
2018-09-28T09:51:37.500Z,248.00
2018-09-28T09:52:37.519Z,252.00
2018-09-28T09:53:37.536Z,256.00
2018-09-28T09:54:37.587Z,256.00
2018-09-28T09:55:37.582Z,252.00
2018-09-28T09:56:37.602Z,248.00
2018-09-28T09:57:37.699Z,244.00
2018-09-28T09:58:38.428Z,236.00
2018-09-28T09:59:37.682Z,228.00
2018-09-28T10:00:37.683Z,224.00
2018-09-28T10:01:37.716Z,216.00
2018-09-28T10:02:37.738Z,212.00
2018-09-28T10:03:37.741Z,204.00
2018-09-28T10:04:37.770Z,192.00
2018-09-28T10:05:37.797Z,180.00
2018-09-28T10:06:37.802Z,164.00
2018-09-28T10:07:37.819Z,152.00
2018-09-28T10:08:37.833Z,144.00
2018-09-28T10:09:37.883Z,136.00
2018-09-28T10:10:37.885Z,132.00
2018-09-28T10:11:37.880Z,124.00
2018-09-28T10:12:38.013Z,120.00
2018-09-28T10:13:37.964Z,116.00
2018-09-28T10:14:37.970Z,108.00
2018-09-28T10:15:37.981Z,108.00
2018-09-28T10:16:38.010Z,104.00
2018-09-28T10:17:38.024Z,100.00
2018-09-28T10:18:38.025Z,104.00
2018-09-28T10:19:38.137Z,104.00
2018-09-28T10:20:38.053Z,104.00
2018-09-28T10:21:38.091Z,104.00
2018-09-28T10:22:38.107Z,104.00
2018-09-28T10:23:38.138Z,104.00
2018-09-28T10:24:38.160Z,108.00
2018-09-28T10:25:38.159Z,108.00
2018-09-28T10:26:38.196Z,104.00
2018-09-28T10:27:38.219Z,104.00
2018-09-28T10:28:38.336Z,104.00
2018-09-28T10:29:38.250Z,104.00
2018-09-28T10:30:38.262Z,104.00
2018-09-28T10:31:38.283Z,100.00
2018-09-28T10:32:38.306Z,96.00
2018-09-28T10:33:38.349Z,92.00
2018-09-28T10:34:38.421Z,84.00
2018-09-28T10:35:38.376Z,80.00
2018-09-28T10:36:38.389Z,76.00
2018-09-28T10:37:38.405Z,68.00
2018-09-28T10:38:38.427Z,64.00
2018-09-28T10:39:38.513Z,56.00
2018-09-28T10:40:38.592Z,56.00
2018-09-28T10:41:38.490Z,48.00
2018-09-28T10:42:38.515Z,48.00
2018-09-28T10:43:38.516Z,40.00
2018-09-28T10:44:38.523Z,40.00
2018-09-28T10:45:38.574Z,36.00
2018-09-28T10:46:38.587Z,32.00
2018-09-28T10:47:38.599Z,28.00
2018-09-28T10:48:38.645Z,24.00
2018-09-28T10:49:38.662Z,20.00
2018-09-28T10:50:38.650Z,16.00
2018-09-28T10:51:38.713Z,16.00
2018-09-28T10:52:38.768Z,16.00
2018-09-28T10:53:38.708Z,12.00
2018-09-28T10:54:38.710Z,16.00
2018-09-28T10:55:38.732Z,12.00
2018-09-28T10:56:38.766Z,12.00
2018-09-28T10:57:38.783Z,12.00
2018-09-28T10:58:38.780Z,12.00
2018-09-28T10:59:38.796Z,12.00
2018-09-28T11:00:38.826Z,8.00
2018-09-28T11:01:38.855Z,8.00
2018-09-28T11:02:38.866Z,8.00
2018-09-28T11:03:38.936Z,8.00
2018-09-28T11:04:38.932Z,8.00
2018-09-28T11:05:38.936Z,8.00
2018-09-28T11:06:38.956Z,8.00
2018-09-28T11:07:38.969Z,8.00
2018-09-28T11:08:39.053Z,8.00
2018-09-28T11:09:39.013Z,8.00
2018-09-28T11:10:39.050Z,4.00
2018-09-28T11:11:39.064Z,4.00
2018-09-28T11:12:39.075Z,4.00
2018-09-28T11:13:39.093Z,4.00
2018-09-28T11:14:39.119Z,4.00
2018-09-28T11:15:39.171Z,4.00
2018-09-28T11:16:39.134Z,4.00
2018-09-28T11:17:39.151Z,4.00
2018-09-28T11:18:39.171Z,4.00
2018-09-28T11:19:39.201Z,4.00
2018-09-28T11:20:39.228Z,4.00
2018-09-28T11:21:39.272Z,4.00
2018-09-28T11:22:39.258Z,4.00
2018-09-28T11:23:39.286Z,4.00
2018-09-28T11:24:39.271Z,4.00
2018-09-28T11:25:39.300Z,4.00
2018-09-28T11:26:39.321Z,4.00
2018-09-28T11:27:39.412Z,4.00
2018-09-28T11:28:39.376Z,4.00
2018-09-28T11:29:39.388Z,4.00
2018-09-28T11:30:39.417Z,4.00
2018-09-28T11:31:39.418Z,4.00
2018-09-28T11:32:39.446Z,4.00
2018-09-28T11:33:39.520Z,4.00
2018-09-28T11:34:39.471Z,4.00
2018-09-28T11:35:39.509Z,4.00
2018-09-28T11:36:39.502Z,4.00
2018-09-28T11:37:39.562Z,4.00
2018-09-28T11:38:39.561Z,4.00
2018-09-28T11:39:39.618Z,4.00
2018-09-28T11:40:39.582Z,4.00
2018-09-28T11:41:39.622Z,4.00
2018-09-28T11:42:39.613Z,4.00
2018-09-28T11:43:39.642Z,4.00
2018-09-28T11:44:39.670Z,4.00
2018-09-28T11:45:39.718Z,4.00
2018-09-28T11:46:39.687Z,4.00
2018-09-28T11:47:39.709Z,4.00
2018-09-28T11:48:39.734Z,4.00
2018-09-28T11:49:39.768Z,4.00
2018-09-28T11:50:39.785Z,4.00
2018-09-28T11:51:39.806Z,4.00
2018-09-28T11:52:39.816Z,4.00
2018-09-28T11:53:39.828Z,4.00
2018-09-28T11:54:39.850Z,4.00
2018-09-28T11:55:39.884Z,4.00
2018-09-28T11:56:39.937Z,4.00
2018-09-28T11:57:39.928Z,4.00
2018-09-28T11:58:39.921Z,4.00
2018-09-28T11:59:39.937Z,4.00
2018-09-28T12:00:39.999Z,4.00
2018-09-28T12:01:39.978Z,4.00
2018-09-28T12:02:40.017Z,4.00
2018-09-28T12:03:40.083Z,4.00
2018-09-28T12:04:40.049Z,4.00
2018-09-28T12:05:40.045Z,4.00
2018-09-28T12:06:40.166Z,4.00
2018-09-28T12:07:40.110Z,4.00
2018-09-28T12:08:40.112Z,4.00
2018-09-28T12:09:40.191Z,4.00
2018-09-28T12:10:40.148Z,4.00
2018-09-28T12:11:40.168Z,4.00
2018-09-28T12:12:40.237Z,4.00
2018-09-28T12:13:40.218Z,4.00
2018-09-28T12:14:40.238Z,4.00
2018-09-28T12:15:40.291Z,4.00
2018-09-28T12:16:40.262Z,4.00
2018-09-28T12:17:40.277Z,4.00
2018-09-28T12:18:40.361Z,4.00
2018-09-28T12:19:41.006Z,4.00
2018-09-28T12:20:40.349Z,0.00
2018-09-28T12:21:40.429Z,0.00
2018-09-28T12:22:40.373Z,0.00
2018-09-28T12:23:40.391Z,0.00
2018-09-28T12:24:40.430Z,0.00
2018-09-28T12:25:40.427Z,0.00
2018-09-28T12:26:41.013Z,0.00
2018-09-28T12:27:40.497Z,0.00
2018-09-28T12:28:40.486Z,0.00
2018-09-28T12:29:40.505Z,0.00
2018-09-28T12:30:40.543Z,0.00
2018-09-28T12:31:40.559Z,0.00
2018-09-28T12:32:40.558Z,0.00
2018-09-28T12:33:40.638Z,0.00
2018-09-28T12:34:40.612Z,0.00
2018-09-28T12:35:40.703Z,0.00
2018-09-28T12:36:40.719Z,0.00
2018-09-28T12:37:40.668Z,0.00
2018-09-28T12:38:40.688Z,0.00
2018-09-28T12:39:40.773Z,0.00
2018-09-28T12:40:40.709Z,0.00
2018-09-28T12:41:40.724Z,0.00
2018-09-28T12:42:40.820Z,0.00
2018-09-28T12:43:40.781Z,0.00
2018-09-28T12:44:40.868Z,0.00
2018-09-28T12:45:40.828Z,0.00
2018-09-28T12:46:40.825Z,0.00
2018-09-28T12:47:40.870Z,0.00
2018-09-28T12:48:40.899Z,0.00
2018-09-28T12:49:40.894Z,0.00
2018-09-28T12:50:40.992Z,0.00
2018-09-28T12:51:40.929Z,0.00
2018-09-28T12:52:40.933Z,0.00
2018-09-28T12:53:41.009Z,0.00
2018-09-28T12:54:41.011Z,0.00
2018-09-28T12:55:40.994Z,0.00
2018-09-28T12:56:41.074Z,0.00
2018-09-28T12:57:41.031Z,0.00
2018-09-28T12:58:41.065Z,0.00
2018-09-28T12:59:41.080Z,0.00
2018-09-28T13:00:41.126Z,0.00
2018-09-28T13:01:41.099Z,0.00
2018-09-28T13:02:41.169Z,0.00
2018-09-28T13:03:41.150Z,0.00
2018-09-28T13:04:41.174Z,0.00
2018-09-28T13:05:41.177Z,0.00
2018-09-28T13:06:41.255Z,0.00
2018-09-28T13:07:41.229Z,0.00
2018-09-28T13:08:41.303Z,0.00
2018-09-28T13:09:41.252Z,0.00
2018-09-28T13:10:41.269Z,0.00
2018-09-28T13:11:41.306Z,0.00
2018-09-28T13:12:41.346Z,0.00
2018-09-28T13:13:41.327Z,0.00
2018-09-28T13:14:41.371Z,0.00
2018-09-28T13:15:41.383Z,0.00
2018-09-28T13:16:41.391Z,0.00
2018-09-28T13:17:41.424Z,0.00
2018-09-28T13:18:41.487Z,0.00
2018-09-28T13:19:41.453Z,0.00
2018-09-28T13:20:41.522Z,0.00
2018-09-28T13:21:41.537Z,0.00
2018-09-28T13:22:41.501Z,0.00
2018-09-28T13:23:41.514Z,0.00
2018-09-28T13:24:41.572Z,0.00
2018-09-28T13:25:41.555Z,0.00
2018-09-28T13:26:41.687Z,0.00
2018-09-28T13:27:41.609Z,0.00
2018-09-28T13:28:41.625Z,0.00
2018-09-28T13:29:41.643Z,0.00
2018-09-28T13:30:41.651Z,0.00
2018-09-28T13:31:41.662Z,0.00
2018-09-28T13:32:41.699Z,0.00
2018-09-28T13:33:41.721Z,0.00
2018-09-28T13:34:41.733Z,0.00
2018-09-28T13:35:41.740Z,0.00
2018-09-28T13:36:41.795Z,0.00
2018-09-28T13:37:41.779Z,0.00
2018-09-28T13:38:41.997Z,0.00
2018-09-28T13:39:41.832Z,0.00
2018-09-28T13:40:41.840Z,0.00
2018-09-28T13:41:41.845Z,0.00
2018-09-28T13:42:41.886Z,0.00
2018-09-28T13:43:41.956Z,0.00
2018-09-28T13:44:41.931Z,0.00
2018-09-28T13:45:41.928Z,0.00
2018-09-28T13:46:41.980Z,0.00
2018-09-28T13:47:41.955Z,0.00
2018-09-28T13:48:42.117Z,0.00
2018-09-28T13:49:42.016Z,0.00
2018-09-28T13:50:42.062Z,0.00
2018-09-28T13:51:42.043Z,0.00
2018-09-28T13:52:42.099Z,0.00
2018-09-28T13:53:42.121Z,0.00
2018-09-28T13:54:42.170Z,0.00
2018-09-28T13:55:42.132Z,0.00
2018-09-28T13:56:42.230Z,0.00
2018-09-28T13:57:42.173Z,0.00
2018-09-28T13:58:42.202Z,0.00